sensor_id;sensor_type;location;lat;lon;timestamp;P1;durP1;ratioP1;P2;durP2;ratioP2
18544;SDS011;9402;51.460;7.276;2023-02-28T00:01:59;9.02;;;4.05;;
18544;SDS011;9402;51.460;7.276;2023-02-28T00:04:02;10.65;;;4.00;;
18544;SDS011;9402;51.460;7.276;2023-02-28T00:06:05;11.20;;;4.32;;
18544;SDS011;9402;51.460;7.276;2023-02-28T00:08:09;6.88;;;3.67;;
18544;SDS011;9402;51.460;7.276;2023-02-28T00:10:12;17.50;;;4.40;;
18544;SDS011;9402;51.460;7.276;2023-02-28T00:12:19;9.77;;;4.13;;
18544;SDS011;9402;51.460;7.276;2023-02-28T00:14:22;9.00;;;4.03;;
18544;SDS011;9402;51.460;7.276;2023-02-28T00:16:25;7.32;;;4.03;;
18544;SDS011;9402;51.460;7.276;2023-02-28T00:18:27;8.27;;;4.57;;
18544;SDS011;9402;51.460;7.276;2023-02-28T00:20:30;8.63;;;3.75;;
18544;SDS011;9402;51.460;7.276;2023-02-28T00:22:32;8.43;;;3.97;;
18544;SDS011;9402;51.460;7.276;2023-02-28T00:24:34;9.90;;;4.25;;
18544;SDS011;9402;51.460;7.276;2023-02-28T00:26:37;17.60;;;4.65;;
18544;SDS011;9402;51.460;7.276;2023-02-28T00:28:39;7.45;;;4.15;;
18544;SDS011;9402;51.460;7.276;2023-02-28T00:30:43;6.18;;;3.10;;
18544;SDS011;9402;51.460;7.276;2023-02-28T00:32:46;9.82;;;3.92;;
18544;SDS011;9402;51.460;7.276;2023-02-28T00:34:48;7.10;;;3.45;;
18544;SDS011;9402;51.460;7.276;2023-02-28T00:36:50;8.38;;;3.50;;
18544;SDS011;9402;51.460;7.276;2023-02-28T00:38:53;6.32;;;3.45;;
18544;SDS011;9402;51.460;7.276;2023-02-28T00:40:55;7.82;;;3.33;;
18544;SDS011;9402;51.460;7.276;2023-02-28T00:42:58;12.35;;;4.28;;
18544;SDS011;9402;51.460;7.276;2023-02-28T00:45:01;14.02;;;3.55;;
18544;SDS011;9402;51.460;7.276;2023-02-28T00:47:06;12.20;;;4.05;;
18544;SDS011;9402;51.460;7.276;2023-02-28T00:49:08;7.75;;;3.47;;
18544;SDS011;9402;51.460;7.276;2023-02-28T00:51:10;5.70;;;3.40;;
18544;SDS011;9402;51.460;7.276;2023-02-28T00:53:13;6.60;;;3.42;;
18544;SDS011;9402;51.460;7.276;2023-02-28T00:55:15;6.07;;;3.10;;
18544;SDS011;9402;51.460;7.276;2023-02-28T00:57:18;7.97;;;3.58;;
18544;SDS011;9402;51.460;7.276;2023-02-28T00:59:20;5.78;;;3.45;;
18544;SDS011;9402;51.460;7.276;2023-02-28T01:01:23;6.95;;;3.50;;
18544;SDS011;9402;51.460;7.276;2023-02-28T01:03:26;7.03;;;3.33;;
18544;SDS011;9402;51.460;7.276;2023-02-28T01:05:29;7.53;;;3.67;;
18544;SDS011;9402;51.460;7.276;2023-02-28T01:07:31;7.32;;;3.20;;
18544;SDS011;9402;51.460;7.276;2023-02-28T01:09:33;6.88;;;3.47;;
18544;SDS011;9402;51.460;7.276;2023-02-28T01:11:36;5.88;;;3.25;;
18544;SDS011;9402;51.460;7.276;2023-02-28T01:13:39;6.13;;;2.85;;
18544;SDS011;9402;51.460;7.276;2023-02-28T01:15:43;14.77;;;3.75;;
18544;SDS011;9402;51.460;7.276;2023-02-28T01:17:46;6.13;;;3.08;;
18544;SDS011;9402;51.460;7.276;2023-02-28T01:19:50;8.48;;;3.47;;
18544;SDS011;9402;51.460;7.276;2023-02-28T01:21:55;7.97;;;3.75;;
18544;SDS011;9402;51.460;7.276;2023-02-28T01:23:57;9.10;;;3.28;;
18544;SDS011;9402;51.460;7.276;2023-02-28T01:26:03;8.63;;;3.33;;
18544;SDS011;9402;51.460;7.276;2023-02-28T01:28:06;4.68;;;2.90;;
18544;SDS011;9402;51.460;7.276;2023-02-28T01:30:08;6.80;;;3.30;;
18544;SDS011;9402;51.460;7.276;2023-02-28T01:32:11;7.78;;;3.38;;
18544;SDS011;9402;51.460;7.276;2023-02-28T01:34:14;10.15;;;4.03;;
18544;SDS011;9402;51.460;7.276;2023-02-28T01:36:18;6.38;;;3.58;;
18544;SDS011;9402;51.460;7.276;2023-02-28T01:38:22;7.53;;;3.15;;
18544;SDS011;9402;51.460;7.276;2023-02-28T01:40:24;6.82;;;2.90;;
18544;SDS011;9402;51.460;7.276;2023-02-28T01:42:27;7.47;;;2.78;;
18544;SDS011;9402;51.460;7.276;2023-02-28T01:46:58;9.82;;;3.22;;
18544;SDS011;9402;51.460;7.276;2023-02-28T01:49:02;7.30;;;3.08;;
18544;SDS011;9402;51.460;7.276;2023-02-28T01:51:08;9.10;;;3.35;;
18544;SDS011;9402;51.460;7.276;2023-02-28T01:53:14;7.30;;;2.72;;
18544;SDS011;9402;51.460;7.276;2023-02-28T01:55:19;11.88;;;3.70;;
18544;SDS011;9402;51.460;7.276;2023-02-28T01:57:23;8.63;;;3.03;;
18544;SDS011;9402;51.460;7.276;2023-02-28T01:59:27;9.85;;;3.53;;
18544;SDS011;9402;51.460;7.276;2023-02-28T02:01:31;5.25;;;2.80;;
18544;SDS011;9402;51.460;7.276;2023-02-28T02:03:33;6.38;;;2.17;;
18544;SDS011;9402;51.460;7.276;2023-02-28T02:05:38;5.90;;;2.63;;
18544;SDS011;9402;51.460;7.276;2023-02-28T02:07:41;5.72;;;3.20;;
18544;SDS011;9402;51.460;7.276;2023-02-28T02:09:47;6.90;;;3.58;;
18544;SDS011;9402;51.460;7.276;2023-02-28T02:11:49;5.07;;;2.42;;
18544;SDS011;9402;51.460;7.276;2023-02-28T02:13:55;6.35;;;2.50;;
18544;SDS011;9402;51.460;7.276;2023-02-28T02:16:04;7.30;;;2.67;;
18544;SDS011;9402;51.460;7.276;2023-02-28T02:18:14;6.72;;;2.80;;
18544;SDS011;9402;51.460;7.276;2023-02-28T02:20:30;4.70;;;2.78;;
18544;SDS011;9402;51.460;7.276;2023-02-28T02:25:33;8.07;;;3.13;;
18544;SDS011;9402;51.460;7.276;2023-02-28T02:35:13;8.05;;;3.15;;
18544;SDS011;9402;51.460;7.276;2023-02-28T02:37:21;10.50;;;3.13;;
18544;SDS011;9402;51.460;7.276;2023-02-28T02:39:29;5.05;;;2.85;;
18544;SDS011;9402;51.460;7.276;2023-02-28T02:41:36;10.27;;;3.03;;
18544;SDS011;9402;51.460;7.276;2023-02-28T02:43:43;7.35;;;3.10;;
18544;SDS011;9402;51.460;7.276;2023-02-28T02:45:50;8.73;;;3.30;;
18544;SDS011;9402;51.460;7.276;2023-02-28T02:47:56;10.45;;;3.10;;
18544;SDS011;9402;51.460;7.276;2023-02-28T02:50:02;7.00;;;2.70;;
18544;SDS011;9402;51.460;7.276;2023-02-28T02:52:09;9.40;;;3.35;;
18544;SDS011;9402;51.460;7.276;2023-02-28T02:54:15;9.45;;;2.78;;
18544;SDS011;9402;51.460;7.276;2023-02-28T02:56:21;6.07;;;3.10;;
18544;SDS011;9402;51.460;7.276;2023-02-28T02:58:27;8.38;;;3.42;;
18544;SDS011;9402;51.460;7.276;2023-02-28T03:00:34;7.32;;;3.80;;
18544;SDS011;9402;51.460;7.276;2023-02-28T03:02:38;6.53;;;3.40;;
18544;SDS011;9402;51.460;7.276;2023-02-28T03:04:43;16.05;;;3.35;;
18544;SDS011;9402;51.460;7.276;2023-02-28T03:06:46;7.72;;;3.55;;
18544;SDS011;9402;51.460;7.276;2023-02-28T03:08:50;6.10;;;3.40;;
18544;SDS011;9402;51.460;7.276;2023-02-28T03:10:55;7.53;;;3.60;;
18544;SDS011;9402;51.460;7.276;2023-02-28T03:15:20;5.88;;;2.75;;
18544;SDS011;9402;51.460;7.276;2023-02-28T03:17:29;6.63;;;3.08;;
18544;SDS011;9402;51.460;7.276;2023-02-28T03:19:40;7.53;;;3.47;;
18544;SDS011;9402;51.460;7.276;2023-02-28T03:21:56;7.28;;;3.33;;
18544;SDS011;9402;51.460;7.276;2023-02-28T03:24:10;8.30;;;2.90;;
18544;SDS011;9402;51.460;7.276;2023-02-28T03:26:17;6.25;;;3.13;;
18544;SDS011;9402;51.460;7.276;2023-02-28T03:28:22;8.52;;;3.67;;
18544;SDS011;9402;51.460;7.276;2023-02-28T03:30:33;9.30;;;3.70;;
18544;SDS011;9402;51.460;7.276;2023-02-28T03:32:40;10.50;;;3.53;;
18544;SDS011;9402;51.460;7.276;2023-02-28T03:34:48;6.75;;;3.38;;
18544;SDS011;9402;51.460;7.276;2023-02-28T03:36:55;5.47;;;3.00;;
18544;SDS011;9402;51.460;7.276;2023-02-28T03:39:02;11.30;;;3.30;;
18544;SDS011;9402;51.460;7.276;2023-02-28T03:41:09;7.97;;;3.55;;
18544;SDS011;9402;51.460;7.276;2023-02-28T03:43:14;4.80;;;3.60;;
18544;SDS011;9402;51.460;7.276;2023-02-28T03:45:21;7.82;;;3.47;;
18544;SDS011;9402;51.460;7.276;2023-02-28T03:47:27;10.20;;;3.67;;
18544;SDS011;9402;51.460;7.276;2023-02-28T03:49:34;8.95;;;3.10;;
18544;SDS011;9402;51.460;7.276;2023-02-28T03:51:38;9.00;;;3.35;;
18544;SDS011;9402;51.460;7.276;2023-02-28T03:53:43;8.07;;;3.22;;
18544;SDS011;9402;51.460;7.276;2023-02-28T03:55:48;6.13;;;2.95;;
18544;SDS011;9402;51.460;7.276;2023-02-28T03:57:56;8.52;;;3.17;;
18544;SDS011;9402;51.460;7.276;2023-02-28T04:00:03;7.32;;;3.55;;
18544;SDS011;9402;51.460;7.276;2023-02-28T04:02:08;10.45;;;3.28;;
18544;SDS011;9402;51.460;7.276;2023-02-28T04:04:10;6.80;;;3.15;;
18544;SDS011;9402;51.460;7.276;2023-02-28T04:06:14;6.95;;;3.05;;
18544;SDS011;9402;51.460;7.276;2023-02-28T04:08:18;8.90;;;3.30;;
18544;SDS011;9402;51.460;7.276;2023-02-28T04:10:20;9.40;;;3.33;;
18544;SDS011;9402;51.460;7.276;2023-02-28T04:12:23;7.82;;;3.78;;
18544;SDS011;9402;51.460;7.276;2023-02-28T04:14:27;9.35;;;3.15;;
18544;SDS011;9402;51.460;7.276;2023-02-28T04:16:29;12.45;;;4.03;;
18544;SDS011;9402;51.460;7.276;2023-02-28T04:18:32;9.05;;;3.08;;
18544;SDS011;9402;51.460;7.276;2023-02-28T04:20:34;5.50;;;3.00;;
18544;SDS011;9402;51.460;7.276;2023-02-28T04:22:37;12.55;;;3.75;;
18544;SDS011;9402;51.460;7.276;2023-02-28T04:24:39;8.63;;;3.50;;
18544;SDS011;9402;51.460;7.276;2023-02-28T04:26:43;6.72;;;2.92;;
18544;SDS011;9402;51.460;7.276;2023-02-28T04:28:46;6.78;;;3.10;;
18544;SDS011;9402;51.460;7.276;2023-02-28T04:30:54;8.65;;;3.10;;
18544;SDS011;9402;51.460;7.276;2023-02-28T04:32:57;6.28;;;3.00;;
18544;SDS011;9402;51.460;7.276;2023-02-28T04:34:59;4.50;;;2.25;;
18544;SDS011;9402;51.460;7.276;2023-02-28T04:37:02;4.82;;;2.70;;
18544;SDS011;9402;51.460;7.276;2023-02-28T04:39:05;9.20;;;3.05;;
18544;SDS011;9402;51.460;7.276;2023-02-28T04:41:07;5.65;;;3.30;;
18544;SDS011;9402;51.460;7.276;2023-02-28T04:43:09;9.00;;;3.15;;
18544;SDS011;9402;51.460;7.276;2023-02-28T04:45:12;5.50;;;3.35;;
18544;SDS011;9402;51.460;7.276;2023-02-28T04:47:15;13.55;;;3.50;;
18544;SDS011;9402;51.460;7.276;2023-02-28T04:49:18;10.13;;;4.05;;
18544;SDS011;9402;51.460;7.276;2023-02-28T04:51:20;5.88;;;3.00;;
18544;SDS011;9402;51.460;7.276;2023-02-28T04:53:22;8.48;;;3.40;;
18544;SDS011;9402;51.460;7.276;2023-02-28T04:55:25;6.80;;;3.28;;
18544;SDS011;9402;51.460;7.276;2023-02-28T04:57:27;6.63;;;3.83;;
18544;SDS011;9402;51.460;7.276;2023-02-28T04:59:30;7.70;;;3.47;;
18544;SDS011;9402;51.460;7.276;2023-02-28T05:01:33;11.43;;;3.70;;
18544;SDS011;9402;51.460;7.276;2023-02-28T05:03:37;7.57;;;3.58;;
18544;SDS011;9402;51.460;7.276;2023-02-28T05:05:41;7.20;;;2.88;;
18544;SDS011;9402;51.460;7.276;2023-02-28T05:07:43;7.47;;;3.25;;
18544;SDS011;9402;51.460;7.276;2023-02-28T05:09:46;6.18;;;3.28;;
18544;SDS011;9402;51.460;7.276;2023-02-28T05:11:48;7.95;;;4.13;;
18544;SDS011;9402;51.460;7.276;2023-02-28T05:13:51;16.85;;;3.67;;
18544;SDS011;9402;51.460;7.276;2023-02-28T05:15:53;7.97;;;3.65;;
18544;SDS011;9402;51.460;7.276;2023-02-28T05:17:56;12.00;;;3.65;;
18544;SDS011;9402;51.460;7.276;2023-02-28T05:19:59;5.75;;;3.47;;
18544;SDS011;9402;51.460;7.276;2023-02-28T05:22:03;6.40;;;3.72;;
18544;SDS011;9402;51.460;7.276;2023-02-28T05:24:07;7.25;;;3.40;;
18544;SDS011;9402;51.460;7.276;2023-02-28T05:26:10;6.55;;;3.13;;
18544;SDS011;9402;51.460;7.276;2023-02-28T05:28:12;9.77;;;3.40;;
18544;SDS011;9402;51.460;7.276;2023-02-28T05:30:15;5.70;;;2.85;;
18544;SDS011;9402;51.460;7.276;2023-02-28T05:32:17;7.43;;;3.08;;
18544;SDS011;9402;51.460;7.276;2023-02-28T05:34:20;15.40;;;4.00;;
18544;SDS011;9402;51.460;7.276;2023-02-28T05:36:24;6.28;;;3.25;;
18544;SDS011;9402;51.460;7.276;2023-02-28T05:38:26;10.80;;;3.13;;
18544;SDS011;9402;51.460;7.276;2023-02-28T05:40:29;10.65;;;3.25;;
18544;SDS011;9402;51.460;7.276;2023-02-28T05:42:31;6.43;;;3.25;;
18544;SDS011;9402;51.460;7.276;2023-02-28T05:44:34;7.88;;;2.90;;
18544;SDS011;9402;51.460;7.276;2023-02-28T05:46:36;8.00;;;3.72;;
18544;SDS011;9402;51.460;7.276;2023-02-28T05:48:39;6.88;;;4.00;;
18544;SDS011;9402;51.460;7.276;2023-02-28T05:50:42;9.10;;;3.00;;
18544;SDS011;9402;51.460;7.276;2023-02-28T05:52:49;5.85;;;2.88;;
18544;SDS011;9402;51.460;7.276;2023-02-28T05:54:52;10.60;;;3.78;;
18544;SDS011;9402;51.460;7.276;2023-02-28T05:56:54;10.07;;;4.50;;
18544;SDS011;9402;51.460;7.276;2023-02-28T05:58:57;7.95;;;3.75;;
18544;SDS011;9402;51.460;7.276;2023-02-28T06:00:59;8.38;;;3.08;;
18544;SDS011;9402;51.460;7.276;2023-02-28T06:03:20;8.65;;;3.75;;
18544;SDS011;9402;51.460;7.276;2023-02-28T06:05:22;7.97;;;3.80;;
18544;SDS011;9402;51.460;7.276;2023-02-28T06:07:25;6.40;;;3.00;;
18544;SDS011;9402;51.460;7.276;2023-02-28T06:09:28;8.35;;;3.92;;
18544;SDS011;9402;51.460;7.276;2023-02-28T06:11:31;9.43;;;4.15;;
18544;SDS011;9402;51.460;7.276;2023-02-28T06:13:33;10.85;;;3.92;;
18544;SDS011;9402;51.460;7.276;2023-02-28T06:15:36;11.95;;;3.63;;
18544;SDS011;9402;51.460;7.276;2023-02-28T06:17:39;7.90;;;4.40;;
18544;SDS011;9402;51.460;7.276;2023-02-28T06:19:41;7.45;;;3.70;;
18544;SDS011;9402;51.460;7.276;2023-02-28T06:21:44;10.90;;;4.20;;
18544;SDS011;9402;51.460;7.276;2023-02-28T06:23:46;11.05;;;4.72;;
18544;SDS011;9402;51.460;7.276;2023-02-28T06:25:50;10.65;;;3.70;;
18544;SDS011;9402;51.460;7.276;2023-02-28T06:27:53;9.35;;;3.90;;
18544;SDS011;9402;51.460;7.276;2023-02-28T06:29:56;8.63;;;3.92;;
18544;SDS011;9402;51.460;7.276;2023-02-28T06:31:58;14.07;;;4.05;;
18544;SDS011;9402;51.460;7.276;2023-02-28T06:34:00;5.68;;;3.45;;
18544;SDS011;9402;51.460;7.276;2023-02-28T06:36:03;7.20;;;3.47;;
18544;SDS011;9402;51.460;7.276;2023-02-28T06:38:06;11.65;;;3.90;;
18544;SDS011;9402;51.460;7.276;2023-02-28T06:40:09;11.25;;;4.20;;
18544;SDS011;9402;51.460;7.276;2023-02-28T06:42:14;9.07;;;4.10;;
18544;SDS011;9402;51.460;7.276;2023-02-28T06:44:17;9.13;;;4.30;;
18544;SDS011;9402;51.460;7.276;2023-02-28T06:46:20;9.65;;;3.90;;
18544;SDS011;9402;51.460;7.276;2023-02-28T06:48:22;10.40;;;4.70;;
18544;SDS011;9402;51.460;7.276;2023-02-28T06:50:25;12.07;;;4.78;;
18544;SDS011;9402;51.460;7.276;2023-02-28T06:52:29;8.75;;;4.40;;
18544;SDS011;9402;51.460;7.276;2023-02-28T06:54:31;7.40;;;4.18;;
18544;SDS011;9402;51.460;7.276;2023-02-28T06:56:34;8.88;;;4.18;;
18544;SDS011;9402;51.460;7.276;2023-02-28T06:58:38;12.77;;;3.83;;
18544;SDS011;9402;51.460;7.276;2023-02-28T07:00:40;10.30;;;4.25;;
18544;SDS011;9402;51.460;7.276;2023-02-28T07:02:43;9.45;;;4.30;;
18544;SDS011;9402;51.460;7.276;2023-02-28T07:04:47;12.18;;;4.50;;
18544;SDS011;9402;51.460;7.276;2023-02-28T07:06:49;7.40;;;3.00;;
18544;SDS011;9402;51.460;7.276;2023-02-28T07:08:52;8.38;;;3.83;;
18544;SDS011;9402;51.460;7.276;2023-02-28T07:10:54;6.30;;;3.63;;
18544;SDS011;9402;51.460;7.276;2023-02-28T07:12:57;11.43;;;4.28;;
18544;SDS011;9402;51.460;7.276;2023-02-28T07:15:01;8.40;;;3.42;;
18544;SDS011;9402;51.460;7.276;2023-02-28T07:17:03;11.48;;;3.80;;
18544;SDS011;9402;51.460;7.276;2023-02-28T07:19:07;9.75;;;4.53;;
18544;SDS011;9402;51.460;7.276;2023-02-28T07:21:10;9.32;;;4.07;;
18544;SDS011;9402;51.460;7.276;2023-02-28T07:23:12;7.68;;;3.78;;
18544;SDS011;9402;51.460;7.276;2023-02-28T07:25:14;13.75;;;4.30;;
18544;SDS011;9402;51.460;7.276;2023-02-28T07:27:17;10.38;;;4.50;;
18544;SDS011;9402;51.460;7.276;2023-02-28T07:29:25;11.50;;;3.83;;
18544;SDS011;9402;51.460;7.276;2023-02-28T07:31:29;18.27;;;4.35;;
18544;SDS011;9402;51.460;7.276;2023-02-28T07:33:31;9.20;;;3.67;;
18544;SDS011;9402;51.460;7.276;2023-02-28T07:35:35;16.10;;;4.28;;
18544;SDS011;9402;51.460;7.276;2023-02-28T07:37:37;9.63;;;4.05;;
18544;SDS011;9402;51.460;7.276;2023-02-28T07:39:40;10.73;;;3.70;;
18544;SDS011;9402;51.460;7.276;2023-02-28T07:41:43;12.82;;;3.45;;
18544;SDS011;9402;51.460;7.276;2023-02-28T07:43:45;8.48;;;4.22;;
18544;SDS011;9402;51.460;7.276;2023-02-28T07:45:48;13.05;;;4.35;;
18544;SDS011;9402;51.460;7.276;2023-02-28T07:47:52;16.83;;;4.60;;
18544;SDS011;9402;51.460;7.276;2023-02-28T07:49:54;20.05;;;5.38;;
18544;SDS011;9402;51.460;7.276;2023-02-28T07:51:57;18.40;;;4.90;;
18544;SDS011;9402;51.460;7.276;2023-02-28T07:53:59;12.55;;;5.80;;
18544;SDS011;9402;51.460;7.276;2023-02-28T07:56:02;11.90;;;5.07;;
18544;SDS011;9402;51.460;7.276;2023-02-28T07:58:05;12.13;;;5.32;;
18544;SDS011;9402;51.460;7.276;2023-02-28T08:00:09;10.48;;;4.50;;
18544;SDS011;9402;51.460;7.276;2023-02-28T08:02:13;9.25;;;4.15;;
18544;SDS011;9402;51.460;7.276;2023-02-28T08:04:17;9.15;;;3.70;;
18544;SDS011;9402;51.460;7.276;2023-02-28T08:06:20;10.35;;;4.30;;
18544;SDS011;9402;51.460;7.276;2023-02-28T08:08:23;14.85;;;4.40;;
18544;SDS011;9402;51.460;7.276;2023-02-28T08:10:29;9.77;;;3.70;;
18544;SDS011;9402;51.460;7.276;2023-02-28T08:12:31;6.93;;;3.38;;
18544;SDS011;9402;51.460;7.276;2023-02-28T08:14:34;12.10;;;4.43;;
18544;SDS011;9402;51.460;7.276;2023-02-28T08:16:36;10.48;;;4.05;;
18544;SDS011;9402;51.460;7.276;2023-02-28T08:18:38;7.57;;;3.17;;
18544;SDS011;9402;51.460;7.276;2023-02-28T08:20:42;11.82;;;3.90;;
18544;SDS011;9402;51.460;7.276;2023-02-28T08:22:45;11.32;;;3.55;;
18544;SDS011;9402;51.460;7.276;2023-02-28T08:24:47;6.85;;;3.80;;
18544;SDS011;9402;51.460;7.276;2023-02-28T08:26:49;10.50;;;3.70;;
18544;SDS011;9402;51.460;7.276;2023-02-28T08:28:52;6.50;;;4.03;;
18544;SDS011;9402;51.460;7.276;2023-02-28T08:30:54;10.82;;;3.30;;
18544;SDS011;9402;51.460;7.276;2023-02-28T08:32:57;9.00;;;3.50;;
18544;SDS011;9402;51.460;7.276;2023-02-28T08:35:00;6.43;;;3.85;;
18544;SDS011;9402;51.460;7.276;2023-02-28T08:37:04;7.72;;;3.75;;
18544;SDS011;9402;51.460;7.276;2023-02-28T08:39:06;8.77;;;3.85;;
18544;SDS011;9402;51.460;7.276;2023-02-28T08:41:09;9.90;;;3.97;;
18544;SDS011;9402;51.460;7.276;2023-02-28T08:43:13;11.85;;;4.15;;
18544;SDS011;9402;51.460;7.276;2023-02-28T08:45:15;11.57;;;3.85;;
18544;SDS011;9402;51.460;7.276;2023-02-28T08:47:18;12.25;;;3.85;;
18544;SDS011;9402;51.460;7.276;2023-02-28T08:49:20;7.18;;;3.60;;
18544;SDS011;9402;51.460;7.276;2023-02-28T08:51:23;9.65;;;4.32;;
18544;SDS011;9402;51.460;7.276;2023-02-28T08:53:28;10.60;;;3.65;;
18544;SDS011;9402;51.460;7.276;2023-02-28T08:55:30;5.55;;;3.20;;
18544;SDS011;9402;51.460;7.276;2023-02-28T08:57:33;14.00;;;3.97;;
18544;SDS011;9402;51.460;7.276;2023-02-28T08:59:35;6.75;;;3.78;;
18544;SDS011;9402;51.460;7.276;2023-02-28T09:01:37;12.30;;;4.07;;
18544;SDS011;9402;51.460;7.276;2023-02-28T09:03:41;7.72;;;3.05;;
18544;SDS011;9402;51.460;7.276;2023-02-28T09:05:51;6.00;;;3.00;;
18544;SDS011;9402;51.460;7.276;2023-02-28T09:07:54;6.32;;;3.38;;
18544;SDS011;9402;51.460;7.276;2023-02-28T09:09:58;7.20;;;3.38;;
18544;SDS011;9402;51.460;7.276;2023-02-28T09:12:00;5.07;;;2.72;;
18544;SDS011;9402;51.460;7.276;2023-02-28T09:14:03;6.82;;;2.97;;
18544;SDS011;9402;51.460;7.276;2023-02-28T09:16:06;8.90;;;3.63;;
18544;SDS011;9402;51.460;7.276;2023-02-28T09:18:09;5.45;;;3.03;;
18544;SDS011;9402;51.460;7.276;2023-02-28T09:20:12;6.32;;;3.33;;
18544;SDS011;9402;51.460;7.276;2023-02-28T09:22:14;5.38;;;3.10;;
18544;SDS011;9402;51.460;7.276;2023-02-28T09:24:16;7.53;;;3.00;;
18544;SDS011;9402;51.460;7.276;2023-02-28T09:26:22;4.40;;;2.70;;
18544;SDS011;9402;51.460;7.276;2023-02-28T09:28:25;4.90;;;2.92;;
18544;SDS011;9402;51.460;7.276;2023-02-28T09:30:28;16.65;;;2.90;;
18544;SDS011;9402;51.460;7.276;2023-02-28T09:32:30;6.20;;;2.63;;
18544;SDS011;9402;51.460;7.276;2023-02-28T09:34:33;4.85;;;2.40;;
18544;SDS011;9402;51.460;7.276;2023-02-28T09:36:37;4.32;;;2.28;;
18544;SDS011;9402;51.460;7.276;2023-02-28T09:38:39;5.82;;;1.80;;
18544;SDS011;9402;51.460;7.276;2023-02-28T09:40:45;6.95;;;2.10;;
18544;SDS011;9402;51.460;7.276;2023-02-28T09:42:52;5.63;;;2.03;;
18544;SDS011;9402;51.460;7.276;2023-02-28T09:44:55;3.97;;;1.98;;
18544;SDS011;9402;51.460;7.276;2023-02-28T09:46:59;10.05;;;1.85;;
18544;SDS011;9402;51.460;7.276;2023-02-28T09:49:06;5.22;;;2.42;;
18544;SDS011;9402;51.460;7.276;2023-02-28T09:51:14;7.80;;;1.95;;
18544;SDS011;9402;51.460;7.276;2023-02-28T09:53:26;5.78;;;1.80;;
18544;SDS011;9402;51.460;7.276;2023-02-28T09:55:35;3.47;;;1.77;;
18544;SDS011;9402;51.460;7.276;2023-02-28T09:57:39;10.80;;;2.20;;
18544;SDS011;9402;51.460;7.276;2023-02-28T09:59:47;3.25;;;1.65;;
18544;SDS011;9402;51.460;7.276;2023-02-28T10:01:54;3.70;;;1.60;;
18544;SDS011;9402;51.460;7.276;2023-02-28T10:04:00;3.72;;;1.80;;
18544;SDS011;9402;51.460;7.276;2023-02-28T10:06:07;3.90;;;1.73;;
18544;SDS011;9402;51.460;7.276;2023-02-28T10:08:14;2.40;;;1.60;;
18544;SDS011;9402;51.460;7.276;2023-02-28T10:10:20;6.20;;;2.15;;
18544;SDS011;9402;51.460;7.276;2023-02-28T10:12:24;8.27;;;1.65;;
18544;SDS011;9402;51.460;7.276;2023-02-28T10:14:28;2.53;;;1.50;;
18544;SDS011;9402;51.460;7.276;2023-02-28T10:16:34;3.75;;;1.60;;
18544;SDS011;9402;51.460;7.276;2023-02-28T10:18:39;3.25;;;1.50;;
18544;SDS011;9402;51.460;7.276;2023-02-28T10:20:44;4.38;;;1.75;;
18544;SDS011;9402;51.460;7.276;2023-02-28T10:22:50;2.58;;;1.52;;
18544;SDS011;9402;51.460;7.276;2023-02-28T10:24:55;5.50;;;1.55;;
18544;SDS011;9402;51.460;7.276;2023-02-28T10:27:00;2.75;;;1.65;;
18544;SDS011;9402;51.460;7.276;2023-02-28T10:29:07;5.45;;;1.50;;
18544;SDS011;9402;51.460;7.276;2023-02-28T10:31:11;4.20;;;2.00;;
18544;SDS011;9402;51.460;7.276;2023-02-28T10:33:21;2.20;;;1.40;;
18544;SDS011;9402;51.460;7.276;2023-02-28T10:35:25;3.00;;;1.70;;
18544;SDS011;9402;51.460;7.276;2023-02-28T10:37:28;3.00;;;1.60;;
18544;SDS011;9402;51.460;7.276;2023-02-28T10:39:39;3.67;;;1.65;;
18544;SDS011;9402;51.460;7.276;2023-02-28T10:41:42;3.65;;;1.58;;
18544;SDS011;9402;51.460;7.276;2023-02-28T10:43:45;2.95;;;1.85;;
18544;SDS011;9402;51.460;7.276;2023-02-28T10:46:01;5.88;;;1.63;;
18544;SDS011;9402;51.460;7.276;2023-02-28T10:48:06;2.78;;;1.48;;
18544;SDS011;9402;51.460;7.276;2023-02-28T10:50:32;2.53;;;1.50;;
18544;SDS011;9402;51.460;7.276;2023-02-28T10:52:38;6.32;;;2.10;;
18544;SDS011;9402;51.460;7.276;2023-02-28T10:54:41;4.60;;;1.30;;
18544;SDS011;9402;51.460;7.276;2023-02-28T10:56:44;3.47;;;1.70;;
18544;SDS011;9402;51.460;7.276;2023-02-28T10:58:54;4.00;;;1.95;;
18544;SDS011;9402;51.460;7.276;2023-02-28T11:00:58;7.63;;;1.60;;
18544;SDS011;9402;51.460;7.276;2023-02-28T11:03:01;6.18;;;1.80;;
18544;SDS011;9402;51.460;7.276;2023-02-28T11:07:29;3.08;;;1.77;;
18544;SDS011;9402;51.460;7.276;2023-02-28T11:09:33;6.75;;;2.42;;
18544;SDS011;9402;51.460;7.276;2023-02-28T11:11:41;5.80;;;1.70;;
18544;SDS011;9402;51.460;7.276;2023-02-28T11:13:45;4.97;;;1.88;;
18544;SDS011;9402;51.460;7.276;2023-02-28T11:15:50;3.58;;;2.00;;
18544;SDS011;9402;51.460;7.276;2023-02-28T11:17:55;4.50;;;1.90;;
18544;SDS011;9402;51.460;7.276;2023-02-28T11:19:59;3.60;;;1.85;;
18544;SDS011;9402;51.460;7.276;2023-02-28T11:22:04;2.70;;;1.55;;
18544;SDS011;9402;51.460;7.276;2023-02-28T11:24:14;3.72;;;1.63;;
18544;SDS011;9402;51.460;7.276;2023-02-28T11:28:43;3.40;;;1.65;;
18544;SDS011;9402;51.460;7.276;2023-02-28T11:30:45;8.40;;;1.60;;
18544;SDS011;9402;51.460;7.276;2023-02-28T11:32:48;3.47;;;1.55;;
18544;SDS011;9402;51.460;7.276;2023-02-28T11:35:00;4.00;;;1.60;;
18544;SDS011;9402;51.460;7.276;2023-02-28T11:37:04;4.03;;;2.00;;
18544;SDS011;9402;51.460;7.276;2023-02-28T11:39:19;4.32;;;1.55;;
18544;SDS011;9402;51.460;7.276;2023-02-28T11:41:31;5.45;;;1.55;;
18544;SDS011;9402;51.460;7.276;2023-02-28T11:43:44;3.47;;;1.38;;
18544;SDS011;9402;51.460;7.276;2023-02-28T11:46:02;3.47;;;1.60;;
18544;SDS011;9402;51.460;7.276;2023-02-28T11:48:16;4.05;;;1.60;;
18544;SDS011;9402;51.460;7.276;2023-02-28T11:50:27;3.15;;;1.50;;
18544;SDS011;9402;51.460;7.276;2023-02-28T11:52:48;2.50;;;1.60;;
18544;SDS011;9402;51.460;7.276;2023-02-28T11:55:00;6.38;;;2.03;;
18544;SDS011;9402;51.460;7.276;2023-02-28T11:57:17;4.05;;;1.90;;
18544;SDS011;9402;51.460;7.276;2023-02-28T11:59:35;2.97;;;1.60;;
18544;SDS011;9402;51.460;7.276;2023-02-28T12:01:59;3.28;;;1.83;;
18544;SDS011;9402;51.460;7.276;2023-02-28T12:04:12;5.57;;;1.80;;
18544;SDS011;9402;51.460;7.276;2023-02-28T12:06:24;4.47;;;1.70;;
18544;SDS011;9402;51.460;7.276;2023-02-28T12:08:40;4.07;;;1.90;;
18544;SDS011;9402;51.460;7.276;2023-02-28T12:10:55;7.47;;;1.70;;
18544;SDS011;9402;51.460;7.276;2023-02-28T12:13:06;2.63;;;1.77;;
18544;SDS011;9402;51.460;7.276;2023-02-28T12:15:18;4.68;;;1.90;;
18544;SDS011;9402;51.460;7.276;2023-02-28T12:17:32;9.43;;;1.90;;
18544;SDS011;9402;51.460;7.276;2023-02-28T12:19:41;2.63;;;1.60;;
18544;SDS011;9402;51.460;7.276;2023-02-28T12:21:55;2.67;;;1.63;;
18544;SDS011;9402;51.460;7.276;2023-02-28T12:24:26;2.78;;;1.70;;
18544;SDS011;9402;51.460;7.276;2023-02-28T12:26:43;5.13;;;2.20;;
18544;SDS011;9402;51.460;7.276;2023-02-28T12:28:49;2.30;;;1.40;;
18544;SDS011;9402;51.460;7.276;2023-02-28T12:30:54;3.10;;;1.90;;
18544;SDS011;9402;51.460;7.276;2023-02-28T12:33:01;4.97;;;1.75;;
18544;SDS011;9402;51.460;7.276;2023-02-28T12:35:06;3.60;;;1.50;;
18544;SDS011;9402;51.460;7.276;2023-02-28T12:37:14;6.25;;;2.10;;
18544;SDS011;9402;51.460;7.276;2023-02-28T12:39:19;3.00;;;1.80;;
18544;SDS011;9402;51.460;7.276;2023-02-28T12:41:28;3.38;;;2.28;;
18544;SDS011;9402;51.460;7.276;2023-02-28T12:43:36;3.22;;;2.35;;
18544;SDS011;9402;51.460;7.276;2023-02-28T12:45:42;4.57;;;1.80;;
18544;SDS011;9402;51.460;7.276;2023-02-28T12:47:48;4.60;;;2.13;;
18544;SDS011;9402;51.460;7.276;2023-02-28T12:49:55;3.13;;;2.17;;
18544;SDS011;9402;51.460;7.276;2023-02-28T12:52:00;3.65;;;1.77;;
18544;SDS011;9402;51.460;7.276;2023-02-28T12:54:09;3.35;;;1.85;;
18544;SDS011;9402;51.460;7.276;2023-02-28T12:56:17;3.95;;;1.60;;
18544;SDS011;9402;51.460;7.276;2023-02-28T12:58:26;4.00;;;2.20;;
18544;SDS011;9402;51.460;7.276;2023-02-28T13:00:33;3.30;;;2.10;;
18544;SDS011;9402;51.460;7.276;2023-02-28T13:02:42;3.53;;;2.13;;